Terminal Aerodrome Forecast
Issued by NWS

Home | Current Version | Previous Version | Text Only | Print | Product List | Glossary On
Versions: 1 2 3 4 5 6 7 8 9 10 11 12 13 14 15 16 17 18 19
000
FTUS44 KOUN 211120
TAFGAG
TAF
KGAG 211120Z 2112/2212 03011KT P6SM BKN050
     FM211700 02011KT P6SM OVC015
      TEMPO 2118/2121 2SM -SHSNPL BKN008
     FM212100 02012KT 4SM -FZRAPL BR OVC008
     FM220300 36006KT P6SM OVC007=

USA.gov is the U.S. government's official web portal to all federal, state and local government web resources and services.